createdAt,value
2023-03-25T00:00:30.826Z,99.16
2023-03-25T00:03:01.357Z,99.17
2023-03-25T00:05:33.748Z,99.24
2023-03-25T00:08:04.200Z,99.31
2023-03-25T00:10:34.286Z,99.29
2023-03-25T00:13:05.769Z,99.49
2023-03-25T00:15:36.623Z,99.43
2023-03-25T00:18:06.942Z,99.46
2023-03-25T00:20:41.112Z,99.51
2023-03-25T00:23:10.924Z,99.52
2023-03-25T00:25:41.472Z,99.56
2023-03-25T00:28:11.261Z,99.53
2023-03-25T00:30:41.101Z,99.62
2023-03-25T00:33:11.759Z,99.60
2023-03-25T00:35:46.646Z,99.80
2023-03-25T00:38:17.097Z,99.77
2023-03-25T00:40:46.933Z,99.80
2023-03-25T00:43:16.734Z,99.84
2023-03-25T00:45:46.590Z,99.90
2023-03-25T00:48:18.015Z,99.92
2023-03-25T00:50:50.602Z,99.92
2023-03-25T00:53:20.476Z,100.00
2023-03-25T00:55:50.393Z,100.00
2023-03-25T00:58:24.134Z,100.00
2023-03-25T01:00:56.662Z,100.00
2023-03-25T01:03:27.040Z,100.00
2023-03-25T01:05:59.476Z,100.00
2023-03-25T01:08:30.033Z,100.00
2023-03-25T01:10:59.844Z,100.00
2023-03-25T01:13:29.657Z,100.00
2023-03-25T01:15:59.469Z,100.00
2023-03-25T01:18:29.289Z,100.00
2023-03-25T01:21:01.681Z,100.00
2023-03-25T01:23:31.486Z,100.00
2023-03-25T01:26:01.344Z,100.00
2023-03-25T01:28:32.123Z,100.00
2023-03-25T01:31:04.258Z,100.00
2023-03-25T01:33:34.214Z,100.00
2023-03-25T01:36:09.691Z,100.00
2023-03-25T01:38:40.209Z,100.00
2023-03-25T01:41:10.272Z,100.00
2023-03-25T01:43:40.238Z,100.00
2023-03-25T01:46:15.091Z,100.00
2023-03-25T01:48:50.225Z,100.00
2023-03-25T01:51:26.939Z,100.00
2023-03-25T01:53:56.987Z,100.00
2023-03-25T01:56:32.584Z,100.00
2023-03-25T01:59:05.758Z,100.00
2023-03-25T02:01:37.034Z,100.00
2023-03-25T02:04:10.233Z,100.00
2023-03-25T02:06:46.325Z,100.00
2023-03-25T02:09:20.187Z,100.00
2023-03-25T02:11:50.655Z,100.00
2023-03-25T02:14:24.474Z,100.00
2023-03-25T02:17:04.088Z,100.00
2023-03-25T02:20:09.559Z,100.00
2023-03-25T02:23:10.071Z,100.00
2023-03-25T02:26:02.422Z,100.00
2023-03-25T02:28:40.580Z,100.00
2023-03-25T02:31:37.678Z,100.00
2023-03-25T02:34:36.241Z,100.00
2023-03-25T02:37:47.219Z,100.00
2023-03-25T02:40:23.838Z,100.00
2023-03-25T02:42:59.450Z,100.00
2023-03-25T02:45:34.509Z,100.00
2023-03-25T02:48:08.669Z,100.00
2023-03-25T02:50:41.464Z,100.00
2023-03-25T02:53:16.407Z,100.00
2023-03-25T02:55:51.642Z,100.00
2023-03-25T02:58:24.715Z,100.00
2023-03-25T03:00:59.176Z,100.00
2023-03-25T03:03:30.190Z,100.00
2023-03-25T03:06:02.597Z,100.00
2023-03-25T03:08:51.118Z,100.00
2023-03-25T03:11:28.040Z,100.00
2023-03-25T03:14:14.038Z,100.00
2023-03-25T03:16:56.200Z,100.00
2023-03-25T03:19:38.329Z,100.00
2023-03-25T03:22:26.022Z,100.00
2023-03-25T03:25:03.145Z,100.00
2023-03-25T03:27:42.034Z,100.00
2023-03-25T03:30:16.036Z,100.00
2023-03-25T03:32:54.066Z,100.00
2023-03-25T03:35:30.387Z,100.00
2023-03-25T03:38:03.956Z,100.00
2023-03-25T03:40:36.006Z,100.00
2023-03-25T03:43:17.411Z,100.00
2023-03-25T03:45:52.472Z,100.00
2023-03-25T03:48:28.642Z,100.00
2023-03-25T03:51:02.343Z,100.00
2023-03-25T03:53:37.709Z,100.00
2023-03-25T03:56:13.282Z,100.00
2023-03-25T03:58:47.271Z,100.00
2023-03-25T04:01:30.856Z,100.00
2023-03-25T04:04:04.169Z,100.00
2023-03-25T04:06:38.870Z,100.00
2023-03-25T04:09:18.794Z,100.00
2023-03-25T04:11:53.461Z,100.00
2023-03-25T04:14:26.092Z,100.00
2023-03-25T04:16:57.436Z,100.00
2023-03-25T04:19:27.431Z,100.00
2023-03-25T04:21:57.356Z,100.00
2023-03-25T04:24:31.573Z,100.00
2023-03-25T04:27:04.598Z,100.00
2023-03-25T04:29:36.999Z,100.00
2023-03-25T04:32:07.102Z,100.00
2023-03-25T04:34:36.991Z,100.00
2023-03-25T04:37:09.178Z,100.00
2023-03-25T04:39:40.005Z,100.00
2023-03-25T04:42:14.005Z,100.00
2023-03-25T04:44:46.498Z,100.00
2023-03-25T04:47:19.391Z,100.00
2023-03-25T04:49:49.271Z,100.00
2023-03-25T04:52:19.445Z,100.00
2023-03-25T04:54:49.324Z,100.00
2023-03-25T04:57:20.536Z,100.00
2023-03-25T04:59:52.943Z,100.00
2023-03-25T05:02:24.313Z,100.00
2023-03-25T05:04:54.514Z,100.00
2023-03-25T05:07:24.327Z,100.00
2023-03-25T05:09:54.132Z,100.00
2023-03-25T05:12:23.900Z,100.00
2023-03-25T05:14:56.543Z,100.00
2023-03-25T05:17:26.538Z,100.00
2023-03-25T05:19:57.466Z,100.00
2023-03-25T05:22:27.399Z,100.00
2023-03-25T05:24:57.352Z,100.00
2023-03-25T05:27:28.606Z,100.00
2023-03-25T05:30:01.258Z,100.00
2023-03-25T05:32:33.817Z,100.00
2023-03-25T05:35:04.170Z,100.00
2023-03-25T05:37:33.990Z,100.00
2023-03-25T05:40:04.217Z,100.00
2023-03-25T05:42:47.277Z,100.00
2023-03-25T05:45:20.208Z,100.00
2023-03-25T05:47:50.121Z,100.00
2023-03-25T05:50:20.349Z,100.00
2023-03-25T05:52:52.082Z,100.00
2023-03-25T05:55:23.154Z,100.00
2023-03-25T05:57:53.135Z,100.00
2023-03-25T06:00:25.934Z,100.00
2023-03-25T06:02:55.864Z,100.00
2023-03-25T06:05:26.234Z,100.00
2023-03-25T06:07:57.697Z,100.00
2023-03-25T06:10:28.164Z,100.00
2023-03-25T06:12:57.937Z,100.00
2023-03-25T06:15:39.272Z,100.00
2023-03-25T06:18:10.796Z,100.00
2023-03-25T06:20:40.688Z,100.00
2023-03-25T06:23:10.542Z,100.00
2023-03-25T06:25:40.557Z,100.00
2023-03-25T06:28:12.395Z,100.00
2023-03-25T06:30:44.816Z,100.00
2023-03-25T06:33:14.811Z,100.00
2023-03-25T06:36:04.717Z,100.00
2023-03-25T06:38:34.567Z,100.00
2023-03-25T06:41:04.409Z,100.00
2023-03-25T06:43:34.266Z,100.00
2023-03-25T06:46:07.121Z,100.00
2023-03-25T06:48:37.257Z,100.00
2023-03-25T06:51:07.730Z,100.00
2023-03-25T06:53:37.669Z,100.00
2023-03-25T06:56:08.129Z,100.00
2023-03-25T06:58:38.037Z,100.00
2023-03-25T07:01:13.706Z,100.00
2023-03-25T07:03:43.649Z,100.00
2023-03-25T07:06:19.710Z,100.00
2023-03-25T07:08:49.682Z,100.00
2023-03-25T07:11:22.942Z,100.00
2023-03-25T07:13:54.249Z,100.00
2023-03-25T07:16:27.344Z,100.00
2023-03-25T07:18:59.176Z,100.00
2023-03-25T07:21:29.507Z,100.00
2023-03-25T07:23:59.337Z,100.00
2023-03-25T07:26:29.110Z,100.00
2023-03-25T07:28:58.890Z,100.00
2023-03-25T07:31:31.502Z,100.00
2023-03-25T07:34:03.077Z,100.00
2023-03-25T07:36:32.883Z,100.00
2023-03-25T07:39:03.292Z,100.00
2023-03-25T07:41:33.901Z,100.00
2023-03-25T07:44:03.775Z,100.00
2023-03-25T07:46:36.207Z,100.00
2023-03-25T07:49:06.046Z,100.00
2023-03-25T07:51:36.129Z,100.00
2023-03-25T07:54:05.935Z,100.00
2023-03-25T07:56:36.606Z,100.00
2023-03-25T07:59:09.810Z,100.00
2023-03-25T08:01:42.346Z,100.00
2023-03-25T08:04:13.923Z,100.00
2023-03-25T08:06:44.113Z,100.00
2023-03-25T08:09:13.955Z,100.00
2023-03-25T08:11:43.925Z,100.00
2023-03-25T08:14:13.843Z,100.00
2023-03-25T08:16:46.404Z,100.00
2023-03-25T08:19:16.336Z,100.00
2023-03-25T08:21:46.281Z,100.00
2023-03-25T08:24:16.095Z,100.00
2023-03-25T08:26:45.890Z,100.00
2023-03-25T08:29:17.697Z,100.00
2023-03-25T08:31:52.590Z,100.00
2023-03-25T08:34:23.626Z,100.00
2023-03-25T08:36:59.781Z,100.00
2023-03-25T08:39:37.277Z,100.00
2023-03-25T08:42:07.971Z,100.00
2023-03-25T08:44:38.312Z,100.00
2023-03-25T08:47:11.225Z,100.00
2023-03-25T08:49:41.073Z,100.00
2023-03-25T08:52:11.624Z,100.00
2023-03-25T08:54:41.489Z,100.00
2023-03-25T08:57:11.506Z,100.00
2023-03-25T08:59:41.408Z,100.00
2023-03-25T09:02:15.923Z,100.00
2023-03-25T09:04:49.311Z,100.00
2023-03-25T09:07:20.024Z,100.00
2023-03-25T09:09:49.856Z,100.00
2023-03-25T09:12:19.666Z,100.00
2023-03-25T09:14:51.014Z,100.00
2023-03-25T09:17:26.054Z,100.00
2023-03-25T09:19:57.707Z,100.00
2023-03-25T09:22:28.709Z,100.00
2023-03-25T09:24:58.560Z,100.00
2023-03-25T09:27:28.394Z,100.00
2023-03-25T09:29:58.242Z,100.00
2023-03-25T09:32:30.823Z,100.00
2023-03-25T09:35:00.728Z,100.00
2023-03-25T09:37:30.597Z,100.00
2023-03-25T09:40:00.434Z,100.00
2023-03-25T09:42:40.665Z,100.00
2023-03-25T09:45:24.556Z,100.00
2023-03-25T09:48:04.218Z,100.00
2023-03-25T09:50:36.997Z,100.00
2023-03-25T09:53:10.517Z,100.00
2023-03-25T09:55:44.924Z,100.00
2023-03-25T09:58:31.634Z,100.00
2023-03-25T10:01:07.849Z,100.00
2023-03-25T10:03:50.409Z,100.00
2023-03-25T10:06:26.490Z,100.00
2023-03-25T10:09:13.159Z,100.00
2023-03-25T10:11:48.757Z,100.00
2023-03-25T10:14:24.232Z,100.00
2023-03-25T10:17:03.717Z,100.00
2023-03-25T10:19:51.282Z,100.00
2023-03-25T10:22:26.152Z,100.00
2023-03-25T10:24:59.338Z,100.00
2023-03-25T10:27:36.098Z,100.00
2023-03-25T10:30:16.199Z,100.00
2023-03-25T10:32:50.860Z,100.00
2023-03-25T10:35:30.300Z,100.00
2023-03-25T10:38:08.689Z,100.00
2023-03-25T10:40:50.602Z,100.00
2023-03-25T10:43:28.786Z,100.00
2023-03-25T10:46:03.298Z,100.00
2023-03-25T10:48:36.064Z,100.00
2023-03-25T10:51:13.080Z,100.00
2023-03-25T10:53:44.998Z,100.00
2023-03-25T10:56:18.218Z,100.00
2023-03-25T10:58:52.543Z,100.00
2023-03-25T11:01:24.764Z,100.00
2023-03-25T11:03:56.249Z,100.00
2023-03-25T11:06:31.130Z,100.00
2023-03-25T11:09:13.831Z,100.00
2023-03-25T11:11:45.085Z,100.00
2023-03-25T11:14:15.451Z,100.00
2023-03-25T11:16:49.313Z,100.00
2023-03-25T11:19:23.876Z,100.00
2023-03-25T11:22:01.875Z,100.00
2023-03-25T11:24:35.617Z,100.00
2023-03-25T11:27:05.629Z,100.00
2023-03-25T11:29:35.784Z,100.00
2023-03-25T11:32:11.044Z,100.00
2023-03-25T11:34:42.619Z,100.00
2023-03-25T11:37:25.326Z,100.00
2023-03-25T11:39:57.352Z,100.00
2023-03-25T11:42:33.790Z,100.00
2023-03-25T11:45:05.115Z,100.00
2023-03-25T11:47:37.152Z,100.00
2023-03-25T11:50:08.895Z,100.00
2023-03-25T11:52:46.893Z,100.00
2023-03-25T11:55:21.426Z,100.00
2023-03-25T11:57:53.456Z,100.00
2023-03-25T12:00:31.069Z,100.00
2023-03-25T12:03:05.323Z,100.00
2023-03-25T12:05:36.220Z,100.00
2023-03-25T12:08:18.614Z,100.00
2023-03-25T12:10:55.295Z,100.00
2023-03-25T12:13:38.075Z,100.00
2023-03-25T12:16:20.744Z,100.00
2023-03-25T12:19:06.771Z,100.00
2023-03-25T12:22:04.490Z,100.00
2023-03-25T12:24:57.472Z,100.00
2023-03-25T12:27:39.456Z,100.00
2023-03-25T12:30:20.918Z,100.00
2023-03-25T12:33:04.090Z,100.00
2023-03-25T12:35:43.695Z,100.00
2023-03-25T12:38:36.586Z,100.00
2023-03-25T12:41:23.371Z,100.00
2023-03-25T12:44:14.325Z,99.92
2023-03-25T12:47:17.483Z,99.57
2023-03-25T12:50:28.006Z,99.52
2023-03-25T12:53:11.539Z,99.38
2023-03-25T12:55:53.298Z,99.33
2023-03-25T12:58:46.485Z,99.28
2023-03-25T13:01:28.488Z,99.05
2023-03-25T13:04:26.119Z,99.02
2023-03-25T13:08:18.023Z,98.78
2023-03-25T13:11:16.038Z,98.65
2023-03-25T13:13:51.529Z,98.59
2023-03-25T13:16:25.832Z,98.74
2023-03-25T13:19:03.979Z,98.85
2023-03-25T13:21:38.804Z,99.13
2023-03-25T13:24:14.008Z,99.12
2023-03-25T13:26:47.650Z,99.43
2023-03-25T13:29:32.762Z,99.66
2023-03-25T13:32:10.684Z,99.92
2023-03-25T13:34:47.653Z,100.00
2023-03-25T13:37:25.781Z,100.00
2023-03-25T13:40:19.958Z,100.00
2023-03-25T13:42:55.805Z,100.00
2023-03-25T13:45:29.528Z,100.00
2023-03-25T13:48:16.280Z,100.00
2023-03-25T13:50:46.913Z,100.00
2023-03-25T13:53:22.133Z,100.00
2023-03-25T13:56:09.840Z,100.00
2023-03-25T13:59:02.002Z,100.00
2023-03-25T14:02:03.210Z,100.00
2023-03-25T14:05:06.102Z,100.00
2023-03-25T14:08:04.934Z,100.00
2023-03-25T14:10:53.166Z,100.00
2023-03-25T14:13:28.874Z,100.00
2023-03-25T14:16:04.843Z,100.00
2023-03-25T14:18:35.697Z,100.00
2023-03-25T14:21:27.318Z,100.00
2023-03-25T14:24:06.358Z,100.00
2023-03-25T14:26:38.020Z,100.00
2023-03-25T14:29:12.605Z,100.00
2023-03-25T14:31:42.426Z,100.00
2023-03-25T14:34:16.502Z,100.00
2023-03-25T14:37:29.846Z,100.00
2023-03-25T14:40:29.258Z,100.00
2023-03-25T14:43:03.059Z,100.00
2023-03-25T14:45:59.606Z,100.00
2023-03-25T14:48:34.618Z,100.00
2023-03-25T14:51:23.445Z,100.00
2023-03-25T14:54:02.245Z,100.00
2023-03-25T14:56:37.205Z,100.00
2023-03-25T14:59:12.816Z,100.00
2023-03-25T15:01:45.832Z,100.00
2023-03-25T15:04:25.752Z,100.00
2023-03-25T15:06:57.849Z,100.00
2023-03-25T15:09:32.426Z,100.00
2023-03-25T15:12:06.138Z,100.00
2023-03-25T15:14:39.495Z,100.00
2023-03-25T15:17:12.885Z,100.00
2023-03-25T15:20:13.097Z,100.00
2023-03-25T15:22:42.938Z,100.00
2023-03-25T15:25:21.935Z,100.00
2023-03-25T15:28:10.969Z,100.00
2023-03-25T15:31:02.622Z,100.00
2023-03-25T15:33:49.143Z,100.00
2023-03-25T15:36:40.121Z,100.00
2023-03-25T15:39:25.165Z,100.00
2023-03-25T15:42:17.333Z,100.00
2023-03-25T15:45:25.793Z,100.00
2023-03-25T15:48:18.813Z,100.00
2023-03-25T15:51:03.535Z,100.00
2023-03-25T15:54:00.887Z,100.00
2023-03-25T15:56:34.447Z,100.00
2023-03-25T15:59:10.838Z,100.00
2023-03-25T16:01:44.618Z,100.00
2023-03-25T16:04:22.750Z,100.00
2023-03-25T16:06:56.424Z,100.00
2023-03-25T16:09:29.195Z,100.00
2023-03-25T16:12:03.056Z,100.00
2023-03-25T16:14:39.245Z,100.00
2023-03-25T16:17:11.435Z,100.00
2023-03-25T16:19:45.046Z,100.00
2023-03-25T16:22:22.664Z,100.00
2023-03-25T16:24:53.992Z,100.00
2023-03-25T16:27:30.076Z,100.00
2023-03-25T16:30:02.763Z,100.00
2023-03-25T16:32:36.014Z,100.00
2023-03-25T16:35:07.350Z,100.00
2023-03-25T16:37:41.919Z,100.00
2023-03-25T16:40:22.474Z,100.00
2023-03-25T16:42:52.663Z,100.00
2023-03-25T16:45:26.314Z,100.00
2023-03-25T16:48:00.707Z,100.00
2023-03-25T16:50:30.749Z,100.00
2023-03-25T16:53:03.067Z,100.00
2023-03-25T16:55:35.991Z,100.00
2023-03-25T16:58:09.748Z,100.00
2023-03-25T17:00:45.780Z,100.00
2023-03-25T17:03:20.369Z,100.00
2023-03-25T17:05:57.168Z,100.00
2023-03-25T17:08:26.996Z,100.00
2023-03-25T17:11:00.179Z,100.00
2023-03-25T17:13:35.133Z,100.00
2023-03-25T17:16:09.888Z,100.00
2023-03-25T17:18:41.082Z,100.00
2023-03-25T17:21:14.500Z,100.00
2023-03-25T17:23:48.702Z,100.00
2023-03-25T17:26:21.845Z,100.00
2023-03-25T17:29:05.918Z,100.00
2023-03-25T17:31:41.246Z,100.00
2023-03-25T17:34:14.070Z,100.00
2023-03-25T17:36:47.088Z,100.00
2023-03-25T17:39:21.143Z,100.00
2023-03-25T17:42:00.698Z,100.00
2023-03-25T17:44:38.667Z,100.00
2023-03-25T17:47:17.238Z,100.00
2023-03-25T17:49:47.153Z,100.00
2023-03-25T17:52:18.004Z,100.00
2023-03-25T17:54:47.828Z,100.00
2023-03-25T17:57:20.558Z,100.00
2023-03-25T17:59:51.655Z,100.00
2023-03-25T18:02:24.200Z,100.00
2023-03-25T18:04:53.974Z,100.00
2023-03-25T18:07:23.736Z,100.00
2023-03-25T18:09:59.299Z,100.00
2023-03-25T18:12:29.260Z,100.00
2023-03-25T18:14:59.009Z,100.00
2023-03-25T18:17:31.393Z,100.00
2023-03-25T18:20:01.198Z,100.00
2023-03-25T18:22:31.098Z,100.00
2023-03-25T18:25:01.832Z,100.00
2023-03-25T18:27:42.629Z,100.00
2023-03-25T18:30:21.860Z,100.00
2023-03-25T18:32:54.710Z,100.00
2023-03-25T18:35:25.330Z,100.00
2023-03-25T18:37:55.146Z,100.00
2023-03-25T18:40:28.506Z,100.00
2023-03-25T18:42:58.629Z,100.00
2023-03-25T18:45:31.891Z,100.00
2023-03-25T18:48:04.378Z,100.00
2023-03-25T18:50:36.752Z,100.00
2023-03-25T18:53:08.058Z,100.00
2023-03-25T18:55:41.829Z,100.00
2023-03-25T18:58:18.103Z,100.00
2023-03-25T19:00:51.380Z,100.00
2023-03-25T19:03:30.543Z,100.00
2023-03-25T19:06:03.173Z,100.00
2023-03-25T19:08:32.991Z,100.00
2023-03-25T19:11:16.586Z,100.00
2023-03-25T19:13:50.563Z,100.00
2023-03-25T19:16:21.113Z,100.00
2023-03-25T19:18:53.628Z,100.00
2023-03-25T19:21:23.557Z,100.00
2023-03-25T19:23:53.404Z,100.00
2023-03-25T19:26:28.527Z,100.00
2023-03-25T19:28:58.276Z,100.00
2023-03-25T19:31:29.884Z,100.00
2023-03-25T19:34:02.455Z,100.00
2023-03-25T19:36:34.934Z,100.00
2023-03-25T19:39:05.942Z,100.00
2023-03-25T19:41:42.305Z,100.00
2023-03-25T19:44:12.984Z,100.00
2023-03-25T19:46:42.979Z,100.00
2023-03-25T19:49:20.667Z,100.00
2023-03-25T19:51:58.892Z,100.00
2023-03-25T19:54:28.855Z,100.00
2023-03-25T19:56:58.664Z,100.00
2023-03-25T19:59:28.435Z,100.00
2023-03-25T20:01:59.989Z,100.00
2023-03-25T20:04:32.414Z,100.00
2023-03-25T20:07:02.192Z,100.00
2023-03-25T20:09:32.711Z,100.00
2023-03-25T20:12:03.258Z,100.00
2023-03-25T20:14:33.033Z,100.00
2023-03-25T20:17:02.844Z,100.00
2023-03-25T20:19:35.274Z,100.00
2023-03-25T20:22:18.449Z,100.00
2023-03-25T20:24:55.726Z,100.00
2023-03-25T20:27:25.515Z,100.00
2023-03-25T20:29:55.328Z,100.00
2023-03-25T20:32:39.334Z,100.00
2023-03-25T20:35:15.717Z,100.00
2023-03-25T20:37:46.560Z,100.00
2023-03-25T20:40:18.677Z,100.00
2023-03-25T20:42:50.603Z,100.00
2023-03-25T20:45:21.383Z,100.00
2023-03-25T20:47:52.230Z,100.00
2023-03-25T20:50:25.020Z,100.00
2023-03-25T20:52:54.968Z,100.00
2023-03-25T20:55:27.070Z,100.00
2023-03-25T20:57:56.956Z,100.00
2023-03-25T21:00:26.877Z,100.00
2023-03-25T21:02:57.828Z,100.00
2023-03-25T21:05:30.468Z,100.00
2023-03-25T21:08:00.793Z,100.00
2023-03-25T21:10:30.767Z,100.00
2023-03-25T21:13:00.610Z,100.00
2023-03-25T21:15:31.593Z,100.00
2023-03-25T21:18:01.466Z,100.00
2023-03-25T21:20:33.955Z,100.00
2023-03-25T21:23:05.548Z,100.00
2023-03-25T21:25:37.663Z,100.00
2023-03-25T21:28:08.255Z,100.00
2023-03-25T21:30:38.097Z,100.00
2023-03-25T21:33:08.803Z,100.00
2023-03-25T21:35:41.196Z,100.00
2023-03-25T21:38:28.856Z,100.00
2023-03-25T21:41:01.079Z,100.00
2023-03-25T21:43:31.260Z,100.00
2023-03-25T21:46:05.187Z,100.00
2023-03-25T21:48:38.430Z,100.00
2023-03-25T21:51:14.646Z,100.00
2023-03-25T21:53:46.685Z,100.00
2023-03-25T21:56:21.941Z,100.00
2023-03-25T21:58:52.036Z,100.00
2023-03-25T22:01:28.663Z,100.00
2023-03-25T22:03:59.473Z,100.00
2023-03-25T22:06:35.268Z,100.00
2023-03-25T22:09:06.772Z,100.00
2023-03-25T22:11:38.596Z,100.00
2023-03-25T22:14:09.928Z,100.00
2023-03-25T22:16:42.225Z,100.00
2023-03-25T22:19:12.073Z,100.00
2023-03-25T22:21:45.055Z,100.00
2023-03-25T22:24:14.849Z,100.00
2023-03-25T22:26:44.665Z,100.00
2023-03-25T22:29:14.550Z,100.00
2023-03-25T22:31:44.343Z,100.00
2023-03-25T22:34:16.101Z,100.00
2023-03-25T22:36:51.153Z,100.00
2023-03-25T22:39:23.378Z,100.00
2023-03-25T22:41:57.676Z,100.00
2023-03-25T22:44:27.804Z,100.00
2023-03-25T22:46:58.468Z,100.00
2023-03-25T22:49:28.632Z,100.00
2023-03-25T22:52:01.528Z,100.00
2023-03-25T22:54:31.390Z,100.00
2023-03-25T22:57:01.278Z,100.00
2023-03-25T22:59:31.496Z,100.00
2023-03-25T23:02:04.192Z,100.00
2023-03-25T23:04:34.074Z,100.00
2023-03-25T23:07:08.602Z,100.00
2023-03-25T23:09:44.239Z,100.00
2023-03-25T23:12:18.124Z,100.00
2023-03-25T23:14:54.599Z,100.00
2023-03-25T23:17:24.871Z,100.00
2023-03-25T23:19:55.210Z,100.00
2023-03-25T23:22:27.765Z,100.00
2023-03-25T23:24:59.296Z,100.00
2023-03-25T23:27:30.813Z,100.00
2023-03-25T23:30:01.213Z,100.00
2023-03-25T23:32:31.481Z,100.00
2023-03-25T23:35:04.473Z,100.00
2023-03-25T23:37:37.193Z,100.00
2023-03-25T23:40:12.791Z,100.00
2023-03-25T23:42:42.594Z,100.00
2023-03-25T23:45:15.787Z,100.00
2023-03-25T23:47:45.656Z,100.00
2023-03-25T23:50:18.668Z,100.00
2023-03-25T23:52:51.267Z,100.00
2023-03-25T23:55:21.621Z,100.00
2023-03-25T23:57:51.410Z,100.00
